Santa Fe Municipal Airport
KSAF : now visible

Airfield :











YOU CAN JOIN US ON...

 
LOGIN :

Register | Disclaimer

   EN    FR    IT 

 









Legend :    VFR   Marginal VFR   IFR   Intensive IFR   Very Intensive IFR
Visi :
Ceiling :
>= 8 km
>= 3000ft
5 to 8 km
1000 to 3000 ft
1500m to 5 km
500 to 1000 ft
800 to 1500m
200 to 500 ft
< 800m
< 200 ft
Symbols :   Thunderstorms  Fog  Heavy snow  Heavy precipitations  Wind > 20 kt






- Airport Elevation : 6348 ft


KSAF - Santa Fe Municipal

CURRENT METAR :
  • 310653Z AUTO 26004KT 10SM BKN095 17/11 A3030 RMK AO2 SLP151 T01670106 403220133

EXPIRED METARs :
  • 310553Z AUTO 08009KT 10SM OVC100 16/11 A3029 RMK AO2 RAB37E47 SLP149 P0000 60001 T01610106 10267 20156 58001
  • 310453Z AUTO 11009KT 10SM FEW110 16/12 A3032 RMK AO2 RAE05 SLP168 P0000 T01560117

TAF KSAF
Valid from the 31 at 06:00 until the 01 at 06:00 UTC


310520Z 3106/0106 08011KT P6SM VCSH BKN080
FM310800 08011KT P6SM BKN080
FM311800 20011KT P6SM BKN090
FM312000 20011G21KT P6SM BKN090
FM010300 12011KT P6SM VCSH BKN090
KZAB FIR / North America



MET'MAP, your aeronautical weather chart ! - Copyright ORBIFLY December 2007 - Disclaimer

ORBIFLY MET'MAP TEAM :

Programming & Development : Alexandra Zaïnal
Concept & original design : Baudouin d'Aumeries
Assistance for programming : Marc-Olivier Méhu
Technical & hardware support : Manuel Goepfert

Contact : metmap@orbifly.com




SOURCES & CREDITS :

   NOAA       Earth
Advisory